sensor_id;sensor_type;location;lat;lon;timestamp;pressure;altitude;pressure_sealevel;temperature;humidity
33153;BME280;19509;43.862;26.176;2022-12-07T00:01:39;101020.25;;;5.01;100.00
33153;BME280;19509;43.862;26.176;2022-12-07T00:04:07;101016.38;;;4.87;100.00
33153;BME280;19509;43.862;26.176;2022-12-07T00:06:34;101011.56;;;4.99;100.00
33153;BME280;19509;43.862;26.176;2022-12-07T00:08:59;101016.41;;;5.04;100.00
33153;BME280;19509;43.862;26.176;2022-12-07T00:11:25;101020.06;;;5.03;100.00
33153;BME280;19509;43.862;26.176;2022-12-07T00:13:53;101011.59;;;5.07;100.00
33153;BME280;19509;43.862;26.176;2022-12-07T00:16:20;101015.59;;;5.03;100.00
33153;BME280;19509;43.862;26.176;2022-12-07T00:18:46;101006.56;;;5.04;100.00
33153;BME280;19509;43.862;26.176;2022-12-07T00:21:17;101012.25;;;5.09;100.00
33153;BME280;19509;43.862;26.176;2022-12-07T00:23:44;101006.56;;;5.04;100.00
33153;BME280;19509;43.862;26.176;2022-12-07T00:26:30;101009.25;;;5.04;100.00
33153;BME280;19509;43.862;26.176;2022-12-07T00:28:59;101012.25;;;5.09;100.00
33153;BME280;19509;43.862;26.176;2022-12-07T00:31:30;101006.56;;;5.12;100.00
33153;BME280;19509;43.862;26.176;2022-12-07T00:33:57;101009.94;;;5.14;100.00
33153;BME280;19509;43.862;26.176;2022-12-07T00:36:24;101015.41;;;5.05;99.97
33153;BME280;19509;43.862;26.176;2022-12-07T00:38:49;101014.06;;;5.09;99.95
33153;BME280;19509;43.862;26.176;2022-12-07T00:41:17;101023.59;;;5.11;99.85
33153;BME280;19509;43.862;26.176;2022-12-07T00:43:44;101017.94;;;5.14;99.97
33153;BME280;19509;43.862;26.176;2022-12-07T00:46:10;101022.25;;;5.07;99.29
33153;BME280;19509;43.862;26.176;2022-12-07T00:48:36;101019.09;;;5.12;99.20
33153;BME280;19509;43.862;26.176;2022-12-07T00:51:03;101013.75;;;5.12;99.19
33153;BME280;19509;43.862;26.176;2022-12-07T00:53:29;101024.75;;;5.09;99.29
33153;BME280;19509;43.862;26.176;2022-12-07T00:55:54;101012.25;;;5.09;99.00
33153;BME280;19509;43.862;26.176;2022-12-07T00:58:21;101016.41;;;5.12;99.45
33153;BME280;19509;43.862;26.176;2022-12-07T01:00:47;101016.59;;;5.10;99.68
33153;BME280;19509;43.862;26.176;2022-12-07T01:03:14;101011.25;;;5.10;99.78
33153;BME280;19509;43.862;26.176;2022-12-07T01:05:40;101008.41;;;5.12;99.53
33153;BME280;19509;43.862;26.176;2022-12-07T01:08:13;101011.44;;;5.17;99.50
33153;BME280;19509;43.862;26.176;2022-12-07T01:10:39;101010.25;;;5.19;99.12
33153;BME280;19509;43.862;26.176;2022-12-07T01:13:04;101002.59;;;5.16;98.68
33153;BME280;19509;43.862;26.176;2022-12-07T01:15:29;101003.09;;;5.12;99.25
33153;BME280;19509;43.862;26.176;2022-12-07T01:17:55;101005.09;;;5.18;99.20
33153;BME280;19509;43.862;26.176;2022-12-07T01:20:20;101000.59;;;5.18;98.88
33153;BME280;19509;43.862;26.176;2022-12-07T01:22:46;100999.09;;;5.24;98.01
33153;BME280;19509;43.862;26.176;2022-12-07T01:25:11;101005.75;;;5.04;98.06
33153;BME280;19509;43.862;26.176;2022-12-07T01:27:37;100995.06;;;5.04;98.50
33153;BME280;19509;43.862;26.176;2022-12-07T01:30:05;101004.41;;;5.08;98.85
33153;BME280;19509;43.862;26.176;2022-12-07T01:32:31;101005.59;;;5.13;98.64
33153;BME280;19509;43.862;26.176;2022-12-07T01:34:57;100999.41;;;5.05;98.65
33153;BME280;19509;43.862;26.176;2022-12-07T01:37:22;101001.06;;;5.06;98.95
33153;BME280;19509;43.862;26.176;2022-12-07T01:39:49;100993.41;;;5.11;98.82
33153;BME280;19509;43.862;26.176;2022-12-07T01:42:14;100987.06;;;5.04;98.87
33153;BME280;19509;43.862;26.176;2022-12-07T01:47:40;100969.09;;;5.14;98.88
33153;BME280;19509;43.862;26.176;2022-12-07T01:50:07;100968.72;;;5.09;98.97
33153;BME280;19509;43.862;26.176;2022-12-07T01:52:33;100967.75;;;5.10;99.36
33153;BME280;19509;43.862;26.176;2022-12-07T01:55:12;100970.91;;;5.13;99.46
33153;BME280;19509;43.862;26.176;2022-12-07T01:57:41;100973.06;;;5.18;99.56
33153;BME280;19509;43.862;26.176;2022-12-07T02:00:09;100968.06;;;5.15;99.50
33153;BME280;19509;43.862;26.176;2022-12-07T02:02:38;100973.25;;;5.16;99.23
33153;BME280;19509;43.862;26.176;2022-12-07T02:05:07;100979.25;;;5.18;98.80
33153;BME280;19509;43.862;26.176;2022-12-07T02:07:36;100973.59;;;5.21;99.12
33153;BME280;19509;43.862;26.176;2022-12-07T02:10:20;100976.56;;;5.18;99.20
33153;BME280;19509;43.862;26.176;2022-12-07T02:12:49;100962.22;;;5.19;98.45
33153;BME280;19509;43.862;26.176;2022-12-07T02:15:18;100969.25;;;5.20;99.13
33153;BME280;19509;43.862;26.176;2022-12-07T02:17:55;100964.25;;;5.26;99.02
33153;BME280;19509;43.862;26.176;2022-12-07T02:20:29;100973.94;;;5.27;98.75
33153;BME280;19509;43.862;26.176;2022-12-07T02:29:40;100985.09;;;5.30;97.42
33153;BME280;19509;43.862;26.176;2022-12-07T02:32:15;100980.94;;;5.28;97.68
33153;BME280;19509;43.862;26.176;2022-12-07T02:37:28;100966.25;;;5.24;97.61
33153;BME280;19509;43.862;26.176;2022-12-07T02:40:01;100969.25;;;5.20;97.64
33153;BME280;19509;43.862;26.176;2022-12-07T02:42:36;100966.41;;;5.14;98.02
33153;BME280;19509;43.862;26.176;2022-12-07T02:45:05;100969.25;;;5.20;98.45
33153;BME280;19509;43.862;26.176;2022-12-07T02:47:33;100968.09;;;5.23;98.26
33153;BME280;19509;43.862;26.176;2022-12-07T02:49:59;100956.56;;;5.22;98.18
33153;BME280;19509;43.862;26.176;2022-12-07T02:52:25;100944.72;;;5.25;97.71
33153;BME280;19509;43.862;26.176;2022-12-07T02:54:50;100947.41;;;5.25;97.50
33153;BME280;19509;43.862;26.176;2022-12-07T03:00:19;100945.88;;;5.22;97.95
33153;BME280;19509;43.862;26.176;2022-12-07T03:03:13;100943.41;;;5.21;97.50
33153;BME280;19509;43.862;26.176;2022-12-07T03:09:03;100945.09;;;5.30;97.06
33153;BME280;19509;43.862;26.176;2022-12-07T03:11:58;100945.41;;;5.27;96.66
33153;BME280;19509;43.862;26.176;2022-12-07T03:14:35;100943.25;;;5.31;97.14
33153;BME280;19509;43.862;26.176;2022-12-07T03:17:13;100946.38;;;5.26;96.25
33153;BME280;19509;43.862;26.176;2022-12-07T03:19:41;100939.91;;;5.20;96.72
33153;BME280;19509;43.862;26.176;2022-12-07T03:22:10;100936.72;;;5.25;96.40
33153;BME280;19509;43.862;26.176;2022-12-07T03:27:25;100937.38;;;5.19;96.65
33153;BME280;19509;43.862;26.176;2022-12-07T03:30:02;100938.06;;;5.21;96.87
33153;BME280;19509;43.862;26.176;2022-12-07T03:35:07;100933.88;;;5.18;96.48
33153;BME280;19509;43.862;26.176;2022-12-07T03:37:41;100929.06;;;5.14;96.43
33153;BME280;19509;43.862;26.176;2022-12-07T03:42:39;100944.25;;;5.13;96.79
33153;BME280;19509;43.862;26.176;2022-12-07T03:45:05;100946.22;;;5.11;96.74
33153;BME280;19509;43.862;26.176;2022-12-07T03:50:10;100945.22;;;5.12;97.28
33153;BME280;19509;43.862;26.176;2022-12-07T03:52:57;100937.72;;;5.16;96.51
33153;BME280;19509;43.862;26.176;2022-12-07T03:55:30;100950.56;;;5.12;97.27
33153;BME280;19509;43.862;26.176;2022-12-07T03:58:00;100948.25;;;5.17;96.93
33153;BME280;19509;43.862;26.176;2022-12-07T04:00:28;100956.72;;;5.13;97.18
33153;BME280;19509;43.862;26.176;2022-12-07T04:02:55;100957.59;;;5.13;96.59
33153;BME280;19509;43.862;26.176;2022-12-07T04:05:20;100951.88;;;5.08;96.74
33153;BME280;19509;43.862;26.176;2022-12-07T04:07:46;100956.41;;;5.08;96.63
33153;BME280;19509;43.862;26.176;2022-12-07T04:10:12;100954.56;;;5.08;96.62
33153;BME280;19509;43.862;26.176;2022-12-07T04:12:37;100951.38;;;5.05;96.55
33153;BME280;19509;43.862;26.176;2022-12-07T04:15:04;100953.22;;;5.04;96.49
33153;BME280;19509;43.862;26.176;2022-12-07T04:17:29;100952.41;;;5.04;96.60
33153;BME280;19509;43.862;26.176;2022-12-07T04:19:55;100949.72;;;5.04;96.45
33153;BME280;19509;43.862;26.176;2022-12-07T04:22:20;100941.38;;;4.98;96.69
33153;BME280;19509;43.862;26.176;2022-12-07T04:24:46;100944.88;;;4.99;96.84
33153;BME280;19509;43.862;26.176;2022-12-07T04:27:11;100945.38;;;4.94;97.15
33153;BME280;19509;43.862;26.176;2022-12-07T04:29:37;100944.88;;;4.99;97.37
33153;BME280;19509;43.862;26.176;2022-12-07T04:32:02;100952.69;;;4.92;97.51
33153;BME280;19509;43.862;26.176;2022-12-07T04:34:28;100947.72;;;4.97;97.68
33153;BME280;19509;43.862;26.176;2022-12-07T04:36:53;100942.38;;;4.97;97.40
33153;BME280;19509;43.862;26.176;2022-12-07T04:39:23;100943.91;;;5.00;97.63
33153;BME280;19509;43.862;26.176;2022-12-07T04:41:49;100950.38;;;5.06;97.34
33153;BME280;19509;43.862;26.176;2022-12-07T04:44:16;100948.56;;;5.06;97.04
33153;BME280;19509;43.862;26.176;2022-12-07T04:46:42;100945.38;;;5.03;96.82
33153;BME280;19509;43.862;26.176;2022-12-07T04:49:08;100946.72;;;4.98;97.39
33153;BME280;19509;43.862;26.176;2022-12-07T04:51:33;100948.53;;;4.98;97.40
33153;BME280;19509;43.862;26.176;2022-12-07T04:53:58;100937.88;;;4.98;97.30
33153;BME280;19509;43.862;26.176;2022-12-07T04:56:24;100940.88;;;4.95;97.36
33153;BME280;19509;43.862;26.176;2022-12-07T04:58:51;100946.22;;;5.03;96.73
33153;BME280;19509;43.862;26.176;2022-12-07T05:01:18;100944.53;;;5.02;96.36
33153;BME280;19509;43.862;26.176;2022-12-07T05:03:43;100939.22;;;5.02;96.26
33153;BME280;19509;43.862;26.176;2022-12-07T05:06:09;100941.88;;;5.02;96.71
33153;BME280;19509;43.862;26.176;2022-12-07T05:08:35;100951.25;;;5.06;96.80
33153;BME280;19509;43.862;26.176;2022-12-07T05:11:02;100951.25;;;5.06;96.09
33153;BME280;19509;43.862;26.176;2022-12-07T05:13:29;100952.41;;;5.04;96.37
33153;BME280;19509;43.862;26.176;2022-12-07T05:15:55;100957.88;;;5.02;96.76
33153;BME280;19509;43.862;26.176;2022-12-07T05:18:20;100958.38;;;4.97;96.58
33153;BME280;19509;43.862;26.176;2022-12-07T05:20:46;100958.38;;;5.06;97.06
33153;BME280;19509;43.862;26.176;2022-12-07T05:23:12;100959.06;;;5.00;96.84
33153;BME280;19509;43.862;26.176;2022-12-07T05:25:37;100957.06;;;5.02;96.82
33153;BME280;19509;43.862;26.176;2022-12-07T05:28:04;100958.38;;;5.06;96.36
33153;BME280;19509;43.862;26.176;2022-12-07T05:30:29;100962.22;;;4.95;96.49
33153;BME280;19509;43.862;26.176;2022-12-07T05:32:55;100966.22;;;4.99;96.44
33153;BME280;19509;43.862;26.176;2022-12-07T05:35:21;100962.88;;;4.97;96.73
33153;BME280;19509;43.862;26.176;2022-12-07T05:37:46;100963.03;;;4.95;97.03
33153;BME280;19509;43.862;26.176;2022-12-07T05:40:13;100968.03;;;4.98;96.79
33153;BME280;19509;43.862;26.176;2022-12-07T05:42:39;100964.91;;;5.03;96.26
33153;BME280;19509;43.862;26.176;2022-12-07T05:45:06;100959.88;;;4.92;96.45
33153;BME280;19509;43.862;26.176;2022-12-07T05:47:31;100960.56;;;4.94;96.45
33153;BME280;19509;43.862;26.176;2022-12-07T05:49:57;100964.72;;;4.96;96.78
33153;BME280;19509;43.862;26.176;2022-12-07T05:52:22;100965.88;;;5.02;96.30
33153;BME280;19509;43.862;26.176;2022-12-07T05:54:48;100961.72;;;5.00;96.34
33153;BME280;19509;43.862;26.176;2022-12-07T05:57:13;100958.56;;;4.96;96.41
33153;BME280;19509;43.862;26.176;2022-12-07T05:59:39;100957.06;;;5.02;96.46
33153;BME280;19509;43.862;26.176;2022-12-07T06:02:07;100964.72;;;5.05;96.63
33153;BME280;19509;43.862;26.176;2022-12-07T06:04:38;100955.56;;;5.07;96.18
33153;BME280;19509;43.862;26.176;2022-12-07T06:07:05;100965.41;;;5.15;95.50
33153;BME280;19509;43.862;26.176;2022-12-07T06:09:30;100959.91;;;5.00;95.65
33153;BME280;19509;43.862;26.176;2022-12-07T06:11:56;100960.03;;;4.98;96.06
33153;BME280;19509;43.862;26.176;2022-12-07T06:14:40;100952.22;;;4.97;95.60
33153;BME280;19509;43.862;26.176;2022-12-07T06:17:06;100962.22;;;4.95;95.39
33153;BME280;19509;43.862;26.176;2022-12-07T06:19:32;100958.38;;;5.06;95.59
33153;BME280;19509;43.862;26.176;2022-12-07T06:21:58;100960.56;;;5.02;95.28
33153;BME280;19509;43.862;26.176;2022-12-07T06:24:24;100963.06;;;5.04;96.08
33153;BME280;19509;43.862;26.176;2022-12-07T06:26:49;100966.25;;;5.07;95.56
33153;BME280;19509;43.862;26.176;2022-12-07T06:29:16;100963.25;;;5.10;94.96
33153;BME280;19509;43.862;26.176;2022-12-07T06:31:42;100965.06;;;5.18;94.41
33153;BME280;19509;43.862;26.176;2022-12-07T06:34:13;100968.25;;;5.21;94.80
33153;BME280;19509;43.862;26.176;2022-12-07T06:36:39;100963.59;;;5.24;94.74
33153;BME280;19509;43.862;26.176;2022-12-07T06:39:06;100970.75;;;5.23;94.48
33153;BME280;19509;43.862;26.176;2022-12-07T06:41:31;100971.75;;;5.22;94.08
33153;BME280;19509;43.862;26.176;2022-12-07T06:43:57;100971.41;;;5.17;94.34
33153;BME280;19509;43.862;26.176;2022-12-07T06:46:23;100966.91;;;5.17;94.47
33153;BME280;19509;43.862;26.176;2022-12-07T06:48:49;100962.41;;;5.18;93.88
33153;BME280;19509;43.862;26.176;2022-12-07T06:51:14;100957.44;;;5.23;93.73
33153;BME280;19509;43.862;26.176;2022-12-07T06:53:40;100959.91;;;5.25;94.20
33153;BME280;19509;43.862;26.176;2022-12-07T06:56:06;100966.59;;;5.37;94.12
33153;BME280;19509;43.862;26.176;2022-12-07T06:58:31;100962.41;;;5.26;93.98
33153;BME280;19509;43.862;26.176;2022-12-07T07:00:57;100966.09;;;5.41;92.65
33153;BME280;19509;43.862;26.176;2022-12-07T07:03:22;100966.22;;;5.40;92.62
33153;BME280;19509;43.862;26.176;2022-12-07T07:05:48;100963.06;;;5.36;92.65
33153;BME280;19509;43.862;26.176;2022-12-07T07:08:13;100973.44;;;5.23;93.26
33153;BME280;19509;43.862;26.176;2022-12-07T07:10:39;100963.41;;;5.17;93.69
33153;BME280;19509;43.862;26.176;2022-12-07T07:13:05;100961.41;;;5.27;93.32
33153;BME280;19509;43.862;26.176;2022-12-07T07:15:31;100957.56;;;5.21;93.37
33153;BME280;19509;43.862;26.176;2022-12-07T07:17:57;100957.56;;;5.21;93.51
33153;BME280;19509;43.862;26.176;2022-12-07T07:20:22;100955.72;;;5.22;92.96
33153;BME280;19509;43.862;26.176;2022-12-07T07:22:48;100961.75;;;5.24;92.94
33153;BME280;19509;43.862;26.176;2022-12-07T07:25:15;100974.09;;;5.17;93.22
33153;BME280;19509;43.862;26.176;2022-12-07T07:27:40;100973.41;;;5.15;93.49
33153;BME280;19509;43.862;26.176;2022-12-07T07:30:06;100972.25;;;5.17;93.64
33153;BME280;19509;43.862;26.176;2022-12-07T07:32:32;100979.25;;;5.18;93.81
33153;BME280;19509;43.862;26.176;2022-12-07T07:34:58;100978.59;;;5.25;93.66
33153;BME280;19509;43.862;26.176;2022-12-07T07:37:23;100968.75;;;5.33;93.30
33153;BME280;19509;43.862;26.176;2022-12-07T07:39:48;100972.09;;;5.35;92.99
33153;BME280;19509;43.862;26.176;2022-12-07T07:42:15;100979.75;;;5.38;92.62
33153;BME280;19509;43.862;26.176;2022-12-07T07:44:40;100969.75;;;5.32;92.57
33153;BME280;19509;43.862;26.176;2022-12-07T07:47:06;100974.78;;;5.43;92.06
33153;BME280;19509;43.862;26.176;2022-12-07T07:49:31;100970.91;;;5.46;91.88
33153;BME280;19509;43.862;26.176;2022-12-07T07:51:56;100969.09;;;5.55;91.79
33153;BME280;19509;43.862;26.176;2022-12-07T07:54:22;100966.56;;;5.53;91.52
33153;BME280;19509;43.862;26.176;2022-12-07T07:56:47;100968.41;;;5.44;91.56
33153;BME280;19509;43.862;26.176;2022-12-07T07:59:14;100965.25;;;5.49;91.22
33153;BME280;19509;43.862;26.176;2022-12-07T08:01:39;100974.25;;;5.48;91.30
33153;BME280;19509;43.862;26.176;2022-12-07T08:04:05;100977.25;;;5.45;91.79
33153;BME280;19509;43.862;26.176;2022-12-07T08:06:30;100963.59;;;5.48;91.96
33153;BME280;19509;43.862;26.176;2022-12-07T08:08:56;100966.91;;;5.58;92.12
33153;BME280;19509;43.862;26.176;2022-12-07T08:11:23;100968.09;;;5.64;92.04
33153;BME280;19509;43.862;26.176;2022-12-07T08:13:48;100966.41;;;5.71;90.38
33153;BME280;19509;43.862;26.176;2022-12-07T08:16:14;100960.72;;;5.74;90.08
33153;BME280;19509;43.862;26.176;2022-12-07T08:18:41;100962.03;;;5.70;90.29
33153;BME280;19509;43.862;26.176;2022-12-07T08:21:08;100965.06;;;5.75;90.59
33153;BME280;19509;43.862;26.176;2022-12-07T08:23:35;100965.03;;;5.91;89.41
33153;BME280;19509;43.862;26.176;2022-12-07T08:26:04;100967.03;;;5.89;90.29
33153;BME280;19509;43.862;26.176;2022-12-07T08:28:30;100979.72;;;5.96;90.24
33153;BME280;19509;43.862;26.176;2022-12-07T08:31:00;100969.19;;;5.86;89.75
33153;BME280;19509;43.862;26.176;2022-12-07T08:33:26;100964.19;;;5.91;90.23
33153;BME280;19509;43.862;26.176;2022-12-07T08:35:52;100961.81;;;6.04;89.64
33153;BME280;19509;43.862;26.176;2022-12-07T08:38:17;100952.00;;;6.05;89.72
33153;BME280;19509;43.862;26.176;2022-12-07T08:40:43;100941.94;;;6.15;89.05
33153;BME280;19509;43.862;26.176;2022-12-07T08:43:08;100953.47;;;6.07;88.42
33153;BME280;19509;43.862;26.176;2022-12-07T08:45:34;100952.69;;;5.99;89.14
33153;BME280;19509;43.862;26.176;2022-12-07T08:48:08;100961.38;;;5.92;89.96
33153;BME280;19509;43.862;26.176;2022-12-07T08:50:36;100955.16;;;5.92;89.68
33153;BME280;19509;43.862;26.176;2022-12-07T08:53:03;100958.53;;;5.86;90.26
33153;BME280;19509;43.862;26.176;2022-12-07T08:55:29;100954.34;;;5.91;89.61
33153;BME280;19509;43.862;26.176;2022-12-07T08:57:58;100953.50;;;5.91;89.45
33153;BME280;19509;43.862;26.176;2022-12-07T09:00:25;100957.16;;;5.90;89.56
33153;BME280;19509;43.862;26.176;2022-12-07T09:02:51;100950.69;;;5.92;89.71
33153;BME280;19509;43.862;26.176;2022-12-07T09:05:17;100957.34;;;5.97;89.72
33153;BME280;19509;43.862;26.176;2022-12-07T09:07:48;100954.47;;;6.06;89.53
33153;BME280;19509;43.862;26.176;2022-12-07T09:10:15;100952.50;;;5.92;88.83
33153;BME280;19509;43.862;26.176;2022-12-07T09:12:40;100956.53;;;5.88;89.55
33153;BME280;19509;43.862;26.176;2022-12-07T09:15:06;100936.66;;;5.82;89.92
33153;BME280;19509;43.862;26.176;2022-12-07T09:17:33;100934.47;;;5.86;89.82
33153;BME280;19509;43.862;26.176;2022-12-07T09:19:59;100920.78;;;5.81;90.01
33153;BME280;19509;43.862;26.176;2022-12-07T09:22:29;100926.13;;;5.89;89.69
33153;BME280;19509;43.862;26.176;2022-12-07T09:24:55;100927.63;;;5.91;89.58
33153;BME280;19509;43.862;26.176;2022-12-07T09:27:21;100920.28;;;5.85;89.53
33153;BME280;19509;43.862;26.176;2022-12-07T09:29:46;100912.50;;;5.59;89.96
33153;BME280;19509;43.862;26.176;2022-12-07T09:32:11;100912.50;;;5.67;90.91
33153;BME280;19509;43.862;26.176;2022-12-07T09:34:38;100917.13;;;5.74;90.71
33153;BME280;19509;43.862;26.176;2022-12-07T09:37:03;100904.94;;;5.79;90.55
33153;BME280;19509;43.862;26.176;2022-12-07T09:39:29;100903.75;;;5.90;89.47
33153;BME280;19509;43.862;26.176;2022-12-07T09:41:56;100903.25;;;5.86;90.53
33153;BME280;19509;43.862;26.176;2022-12-07T09:44:25;100896.91;;;5.96;90.46
33153;BME280;19509;43.862;26.176;2022-12-07T09:46:51;100903.75;;;5.98;90.32
33153;BME280;19509;43.862;26.176;2022-12-07T09:49:20;100902.06;;;5.97;90.01
33153;BME280;19509;43.862;26.176;2022-12-07T09:51:48;100903.88;;;6.13;90.13
33153;BME280;19509;43.862;26.176;2022-12-07T09:54:24;100903.69;;;6.14;89.16
33153;BME280;19509;43.862;26.176;2022-12-07T09:56:49;100904.34;;;6.16;88.60
33153;BME280;19509;43.862;26.176;2022-12-07T09:59:18;100904.34;;;6.16;88.72
33153;BME280;19509;43.862;26.176;2022-12-07T10:01:47;100908.34;;;6.21;88.51
33153;BME280;19509;43.862;26.176;2022-12-07T10:04:20;100900.78;;;6.24;87.81
33153;BME280;19509;43.862;26.176;2022-12-07T10:06:47;100896.94;;;6.27;88.08
33153;BME280;19509;43.862;26.176;2022-12-07T10:09:15;100896.94;;;6.27;88.69
33153;BME280;19509;43.862;26.176;2022-12-07T10:12:03;100894.34;;;6.42;88.18
33153;BME280;19509;43.862;26.176;2022-12-07T10:14:31;100894.69;;;6.15;87.88
33153;BME280;19509;43.862;26.176;2022-12-07T10:16:57;100897.63;;;6.21;88.42
33153;BME280;19509;43.862;26.176;2022-12-07T10:19:26;100887.28;;;6.18;88.92
33153;BME280;19509;43.862;26.176;2022-12-07T10:22:13;100877.50;;;6.10;89.60
33153;BME280;19509;43.862;26.176;2022-12-07T10:24:40;100872.28;;;6.16;89.70
33153;BME280;19509;43.862;26.176;2022-12-07T10:27:25;100871.88;;;6.28;88.76
33153;BME280;19509;43.862;26.176;2022-12-07T10:29:52;100873.84;;;6.42;87.53
33153;BME280;19509;43.862;26.176;2022-12-07T10:34:43;100878.91;;;6.52;87.84
33153;BME280;19509;43.862;26.176;2022-12-07T10:39:57;100865.44;;;6.14;88.78
33153;BME280;19509;43.862;26.176;2022-12-07T10:42:26;100873.88;;;5.86;90.16
33153;BME280;19509;43.862;26.176;2022-12-07T10:45:27;100866.38;;;5.82;90.30
33153;BME280;19509;43.862;26.176;2022-12-07T10:48:08;100867.19;;;5.99;90.89
33153;BME280;19509;43.862;26.176;2022-12-07T10:50:51;100862.19;;;6.27;89.22
33153;BME280;19509;43.862;26.176;2022-12-07T10:53:23;100870.50;;;6.40;88.52
33153;BME280;19509;43.862;26.176;2022-12-07T11:01:52;100849.44;;;6.37;88.13
33153;BME280;19509;43.862;26.176;2022-12-07T11:04:47;100847.16;;;6.57;87.49
33153;BME280;19509;43.862;26.176;2022-12-07T11:07:42;100837.41;;;6.87;87.31
33153;BME280;19509;43.862;26.176;2022-12-07T11:12:56;100829.72;;;6.84;86.27
33153;BME280;19509;43.862;26.176;2022-12-07T11:23:53;100829.78;;;6.76;86.83
33153;BME280;19509;43.862;26.176;2022-12-07T11:34:44;100824.09;;;7.31;85.31
33153;BME280;19509;43.862;26.176;2022-12-07T11:37:20;100830.03;;;7.27;84.28
33153;BME280;19509;43.862;26.176;2022-12-07T11:39:52;100821.03;;;7.20;85.75
33153;BME280;19509;43.862;26.176;2022-12-07T11:42:25;100823.56;;;6.60;85.69
33153;BME280;19509;43.862;26.176;2022-12-07T11:44:58;100811.25;;;6.74;86.17
33153;BME280;19509;43.862;26.176;2022-12-07T11:48:03;100804.47;;;6.86;85.38
33153;BME280;19509;43.862;26.176;2022-12-07T11:50:40;100799.69;;;6.97;86.39
33153;BME280;19509;43.862;26.176;2022-12-07T11:55:57;100791.72;;;6.88;86.40
33153;BME280;19509;43.862;26.176;2022-12-07T12:01:13;100791.25;;;6.85;85.53
33153;BME280;19509;43.862;26.176;2022-12-07T12:03:45;100791.13;;;6.40;86.39
33153;BME280;19509;43.862;26.176;2022-12-07T12:06:12;100793.41;;;6.21;87.67
33153;BME280;19509;43.862;26.176;2022-12-07T12:09:14;100794.13;;;6.14;88.51
33153;BME280;19509;43.862;26.176;2022-12-07T12:17:31;100795.91;;;6.45;88.84
33153;BME280;19509;43.862;26.176;2022-12-07T12:22:36;100772.44;;;6.55;88.86
33153;BME280;19509;43.862;26.176;2022-12-07T12:25:05;100781.84;;;6.51;87.91
33153;BME280;19509;43.862;26.176;2022-12-07T12:27:34;100764.97;;;6.51;87.98
33153;BME280;19509;43.862;26.176;2022-12-07T12:30:04;100772.75;;;6.14;87.66
33153;BME280;19509;43.862;26.176;2022-12-07T12:32:39;100771.66;;;6.01;89.25
33153;BME280;19509;43.862;26.176;2022-12-07T12:35:34;100758.69;;;6.21;87.86
33153;BME280;19509;43.862;26.176;2022-12-07T12:40:52;100762.19;;;5.98;89.52
33153;BME280;19509;43.862;26.176;2022-12-07T12:49:38;100750.38;;;5.84;91.00
33153;BME280;19509;43.862;26.176;2022-12-07T12:57:35;100752.00;;;5.93;89.72
33153;BME280;19509;43.862;26.176;2022-12-07T13:00:15;100744.31;;;5.99;89.75
33153;BME280;19509;43.862;26.176;2022-12-07T13:15:55;100750.53;;;5.52;92.50
33153;BME280;19509;43.862;26.176;2022-12-07T13:18:39;100753.28;;;5.66;92.10
33153;BME280;19509;43.862;26.176;2022-12-07T13:26:17;100745.03;;;5.84;91.55
33153;BME280;19509;43.862;26.176;2022-12-07T13:31:40;100741.00;;;5.88;89.55
33153;BME280;19509;43.862;26.176;2022-12-07T13:34:32;100745.72;;;5.78;90.99
33153;BME280;19509;43.862;26.176;2022-12-07T13:37:00;100744.16;;;5.92;90.24
33153;BME280;19509;43.862;26.176;2022-12-07T13:39:28;100746.41;;;5.72;90.96
33153;BME280;19509;43.862;26.176;2022-12-07T13:41:55;100738.19;;;5.82;90.78
33153;BME280;19509;43.862;26.176;2022-12-07T13:44:23;100736.56;;;5.73;91.37
33153;BME280;19509;43.862;26.176;2022-12-07T13:49:29;100729.34;;;5.81;90.77
33153;BME280;19509;43.862;26.176;2022-12-07T13:54:44;100729.72;;;5.70;92.43
33153;BME280;19509;43.862;26.176;2022-12-07T13:57:10;100727.41;;;5.67;91.82
33153;BME280;19509;43.862;26.176;2022-12-07T13:59:35;100715.06;;;5.66;92.31
33153;BME280;19509;43.862;26.176;2022-12-07T14:02:16;100716.59;;;5.60;92.45
33153;BME280;19509;43.862;26.176;2022-12-07T14:04:42;100716.84;;;5.74;91.46
33153;BME280;19509;43.862;26.176;2022-12-07T14:09:59;100720.38;;;5.74;91.76
33153;BME280;19509;43.862;26.176;2022-12-07T14:12:27;100720.19;;;5.76;91.81
33153;BME280;19509;43.862;26.176;2022-12-07T14:14:54;100731.69;;;5.76;91.66
33153;BME280;19509;43.862;26.176;2022-12-07T14:17:23;100726.75;;;5.65;92.30
33153;BME280;19509;43.862;26.176;2022-12-07T14:19:51;100725.47;;;5.53;93.02
33153;BME280;19509;43.862;26.176;2022-12-07T14:22:24;100733.06;;;5.72;92.67
33153;BME280;19509;43.862;26.176;2022-12-07T14:24:57;100732.66;;;5.83;91.37
33153;BME280;19509;43.862;26.176;2022-12-07T14:27:24;100725.34;;;5.77;91.11
33153;BME280;19509;43.862;26.176;2022-12-07T14:29:55;100723.22;;;5.73;91.56
33153;BME280;19509;43.862;26.176;2022-12-07T14:32:26;100717.53;;;5.76;91.49
33153;BME280;19509;43.862;26.176;2022-12-07T14:35:08;100719.53;;;5.74;91.70
33153;BME280;19509;43.862;26.176;2022-12-07T14:37:36;100718.88;;;5.72;91.40
33153;BME280;19509;43.862;26.176;2022-12-07T14:40:02;100725.88;;;5.73;91.18
33153;BME280;19509;43.862;26.176;2022-12-07T14:42:30;100720.53;;;5.73;91.47
33153;BME280;19509;43.862;26.176;2022-12-07T14:44:57;100728.41;;;5.66;91.51
33153;BME280;19509;43.862;26.176;2022-12-07T14:47:23;100727.84;;;5.48;93.00
33153;BME280;19509;43.862;26.176;2022-12-07T14:49:49;100729.47;;;5.57;92.70
33153;BME280;19509;43.862;26.176;2022-12-07T14:52:19;100723.63;;;5.61;92.34
33153;BME280;19509;43.862;26.176;2022-12-07T14:54:45;100725.63;;;5.59;92.00
33153;BME280;19509;43.862;26.176;2022-12-07T14:57:11;100726.28;;;5.61;92.41